Flight Track Log - Related Links

Times and Time Zones

All times are in EDT time to prevent confusion due to time zone crossing. See the N960DL flight status page for this flight to view local times or setup timezone preferences in your user account.

Time Position Orientation Groundspeed Altitude Reporting Facility
EDT Latitude Longitude Course Direction KTS MPH feet Rate Location/Type
Sat 02:22:14 PM 33.6500 -84.4667 North 166 191 2,300  Level Atlanta TRACON
Sat 02:23:14 PM 33.6667 -84.5333 287° West 242 278 4,000 2,250 Climbing Atlanta TRACON
Sat 02:24:00 PM 33.8387 -84.1720 320° Northwest  Level FlightAware Approximate
Sat 02:24:14 PM 33.7167 -84.5833 320° Northwest 280 322 6,800  Level Atlanta TRACON
Sat 02:25:00 PM 33.9340 -84.2667 North  Level FlightAware Approximate
Sat 02:25:14 PM 33.8000 -84.5833 360° North 305 351 9,300  Level Atlanta TRACON
Sat 02:26:00 PM 34.0576 -84.2667 North  Level FlightAware Approximate
Sat 02:26:42 PM 33.9000 -84.4717 43° Northeast 324 373 11,300  Level Atlanta Center
Sat 02:27:00 PM 34.1813 -84.2667 North  Level FlightAware Approximate
Sat 02:27:42 PM 33.9608 -84.3919 47° Northeast 347 399 14,700  Level Atlanta Center
Sat 02:28:42 PM 34.0506 -84.3622 15° North 324 373 16,700 1,850 Climbing Atlanta Center
Sat 02:29:42 PM 34.1592 -84.3250 16° North 369 425 18,400 1,700 Climbing Atlanta Center
Sat 02:30:42 PM 34.2614 -84.2925 15° North 364 419 20,100 1,500 Climbing Atlanta Center
Sat 02:31:42 PM 34.3742 -84.2628 12° North 388 447 21,400 1,350 Climbing Atlanta Center
Sat 02:32:42 PM 34.4869 -84.2353 11° North 410 472 22,800 1,400 Climbing Atlanta Center
Sat 02:33:42 PM 34.6019 -84.2078 11° North 415 478 24,200 1,300 Climbing Atlanta Center
Sat 02:34:42 PM 34.7167 -84.1853 North 415 478 25,400 1,050 Climbing Atlanta Center
Sat 02:35:42 PM 34.8336 -84.1553 12° North 415 478 26,300 700 Climbing Atlanta Center
Sat 02:36:42 PM 34.9589 -84.1250 11° North 434 499 26,800 550 Climbing Atlanta Center
Sat 02:37:42 PM 35.0881 -84.0947 11° North 450 518 27,400 700 Climbing Atlanta Center
Sat 02:38:42 PM 35.2258 -84.0617 11° North 479 551 28,200 950 Climbing Atlanta Center
Sat 02:39:42 PM 35.3614 -84.0389 North 490 564 29,300 1,300 Climbing Atlanta Center
Sat 02:40:42 PM 35.4992 -84.0208 North 490 564 30,800 1,150 Climbing Atlanta Center
Sat 02:41:42 PM 35.6347 -84.0003 North 490 564 31,600 750 Climbing Atlanta Center
Sat 02:42:42 PM 35.7725 -83.9797 North 495 570 32,300 600 Climbing Atlanta Center
Sat 02:43:42 PM 35.9103 -83.9592 North 495 570 32,800 350 Climbing Atlanta Center
Sat 02:44:42 PM 36.0478 -83.9231 12° North 500 575 33,000 88 Climbing Atlanta Center
Sat 02:45:59 PM 36.2261 -83.8203 25° Northeast 519 597 33,000  Level Indianapolis Center
Sat 02:47:00 PM 36.3536 -83.7331 29° Northeast 525 604 33,000 49 Level Indianapolis Center
Sat 02:48:02 PM 36.4822 -83.6444 29° Northeast 529 609 33,100  Climbing Indianapolis Center
Sat 02:49:03 PM 36.6083 -83.5617 28° Northeast 530 610 33,000 -49 Descending Indianapolis Center
Sat 02:50:05 PM 36.7572 -83.4578 29° Northeast 521 600 33,000  Level Indianapolis Center
Sat 02:51:06 PM 36.8858 -83.3694 29° Northeast 519 597 33,000  Level Indianapolis Center
Sat 02:52:08 PM 37.0131 -83.2811 29° Northeast 516 594 33,000  Level Indianapolis Center
Sat 02:53:09 PM 37.1419 -83.1917 29° Northeast 520 598 33,000  Level Indianapolis Center
Sat 02:54:11 PM 37.2700 -83.1022 29° Northeast 520 598 33,000  Level Indianapolis Center
Sat 02:55:12 PM 37.3972 -83.0128 29° Northeast 517 595 33,000  Level Indianapolis Center
Sat 02:56:14 PM 37.5247 -82.9225 29° Northeast 519 597 33,000  Level Indianapolis Center
Sat 02:57:15 PM 37.6522 -82.8303 30° Northeast 524 603 33,000  Level Indianapolis Center
Sat 02:58:17 PM 37.7786 -82.7381 30° Northeast 522 601 33,000  Level Indianapolis Center
Sat 02:59:18 PM 37.9044 -82.6475 30° Northeast 518 596 33,000  Level Indianapolis Center
Sat 03:00:20 PM 38.0525 -82.5392 30° Northeast 522 601 33,000  Level Indianapolis Center
Sat 03:01:22 PM 38.1625 -82.4581 30° Northeast 526 605 33,000  Level Indianapolis Center
Sat 03:02:23 PM 38.2881 -82.3653 30° Northeast 521 600 33,000  Level Indianapolis Center
Sat 03:03:25 PM 38.4144 -82.2736 30° Northeast 521 600 33,000  Level Indianapolis Center
Sat 03:04:26 PM 38.5664 -82.1631 30° Northeast 521 600 33,000  Level Indianapolis Center
Sat 03:05:28 PM 38.6936 -82.0678 30° Northeast 524 603 33,000  Level Indianapolis Center
Sat 03:06:30 PM 38.8333 -82.0333 11° North 518 596 33,000  Level Indianapolis Center
Sat 03:07:31 PM 38.9742 -82.0547 353° North 507 583 33,000  Level Indianapolis Center
Sat 03:08:33 PM 39.1144 -82.0781 353° North 505 581 33,000  Level Indianapolis Center
Sat 03:09:35 PM 39.2564 -82.1008 353° North 510 587 33,000  Level Indianapolis Center
Sat 03:10:36 PM 39.3967 -82.1244 353° North 508 585 33,000  Level Indianapolis Center
Sat 03:11:38 PM 39.5417 -82.1461 353° North 505 581 33,000  Level Indianapolis Center
Sat 03:12:40 PM 39.6817 -82.1700 353° North 505 581 33,000  Level Indianapolis Center
Sat 03:13:41 PM 39.8219 -82.1919 353° North 505 581 33,000  Level Indianapolis Center
Sat 03:14:43 PM 39.9622 -82.2139 353° North 505 581 33,000  Level Indianapolis Center
Sat 03:15:45 PM 40.1275 -82.2403 353° North 510 587 33,000 -195 Level Indianapolis Center
Sat 03:16:46 PM 40.2694 -82.2656 352° North 503 579 32,600 -976 Descending Indianapolis Center
Sat 03:17:48 PM 40.4103 -82.2889 353° North 506 582 31,000 -1,258 Descending Indianapolis Center
Sat 03:18:50 PM 40.5497 -82.3175 351° North 500 575 30,000 -488 Descending Indianapolis Center
Sat 03:19:51 PM 40.6875 -82.3569 348° North 500 575 30,000 -439 Level Indianapolis Center
Sat 03:20:53 PM 40.8253 -82.4006 347° North 500 575 29,100 -1,258 Descending Indianapolis Center
Sat 03:21:55 PM 40.9617 -82.4394 348° North 497 572 27,400 -1,500 Descending Indianapolis Center
Sat 03:22:57 PM 41.1003 -82.4797 348° North 501 577 26,000 -1,561 Descending Indianapolis Center
Sat 03:23:58 PM 41.2381 -82.5208 347° North 500 575 24,200 -1,603 Descending Indianapolis Center
Sat 03:25:08 PM 41.3578 -82.6414 323° Northwest 463 533 22,500 -2,031 Descending Cleveland Center
Sat 03:26:08 PM 41.4597 -82.7608 319° Northwest 453 521 19,800 -2,600 Descending Cleveland Center
Sat 03:27:08 PM 41.5475 -82.8611 319° Northwest 432 497 17,300 -2,500 Descending Cleveland Center
Sat 03:28:08 PM 41.6331 -82.9614 319° Northwest 411 473 14,800 -2,400 Descending Cleveland Center
Sat 03:29:08 PM 41.7103 -83.0561 318° Northwest 404 465 12,500 -1,400 Descending Cleveland Center
Sat 03:30:08 PM 41.7964 -83.1233 330° Northwest 378 435 12,000 -330 Descending Cleveland Center
Sat 03:30:39 PM 41.8414 -83.1531 334° Northwest 341 392 12,000  Level Cleveland Center
Sat 03:31:40 PM 41.9172 -83.2119 330° Northwest 294 338 12,000  Level Cleveland Center
Sat 03:32:41 PM 41.9789 -83.2592 330° Northwest 260 299 12,000  Level Cleveland Center
Sat 03:33:36 PM 42.0406 -83.2897 340° North 273 314 12,000  Level Cleveland Center
Sat 03:34:08 PM 42.0844 -83.2886 North 256 295 12,000 -391 Level Cleveland Center
Sat 03:35:08 PM 42.1475 -83.2633 17° North 255 293 11,400 -1,067 Descending Cleveland Center
Sat 03:35:38 PM 42.1900 -83.2344 27° Northeast 272 313 10,400 -1,600 Descending Cleveland Center
Sat 03:36:08 PM 42.2133 -83.2128 35° Northeast 260 299 9,800 -1,300 Descending Cleveland Center
Sat 03:36:38 PM 42.2536 -83.1836 28° Northeast 272 313 9,100 -1,385 Descending Cleveland Center
Sat 03:37:39 PM 42.3194 -83.1331 30° Northeast 267 307 7,700 -1,082 Descending Cleveland Center
Sat 03:38:40 PM 42.3806 -83.0961 24° Northeast 226 260 6,900 -1,131 Descending Cleveland Center
Sat 03:39:41 PM 42.3981 -83.1614 290° West 184 212 5,400 -1,525 Descending Cleveland Center
Sat 03:40:42 PM 42.3778 -83.2197 245° Southwest 180 207 3,800 -1,131 Descending Cleveland Center
Sat 03:41:43 PM 42.3333 -83.2544 210° Southwest 177 204 3,100 -787 Descending Cleveland Center
Sat 03:42:44 PM 42.2867 -83.2833 205° Southwest 171 197 2,200 -828 Descending Cleveland Center
Sat 03:43:39 PM 42.2547 -83.3100 212° Southwest 144 166 1,500 -724 Descending Cleveland Center
Sat 03:44:40 PM 42.2189 -83.3336 206° Southwest 143 165 800 -689 Descending Cleveland Center

Login

Don't have an account? Register now (free) for customized features, flight alerts, and more!